Time;durP1;ratioP1;P1;durP2;ratioP2;P2;SDS_P1;SDS_P2;PMS_P1;PMS_P2;Temp;Humidity;BMP_temperature;BMP_pressure;BME280_temperature;BME280_humidity;BME280_pressure;Samples;Min_cycle;Max_cycle;Signal;HPM_P1;HPM_P2
2022/05/02 00:00:55;;;;;;;13.75;12.95;;;;;;;;;;5056307;28;20020;-67
2022/05/02 00:03:21;;;;;;;17.48;16.17;;;;;;;;;;5055060;28;20123;-67
2022/05/02 00:05:46;;;;;;;14.23;13.38;;;;;;;;;;5053899;28;20068;-69
2022/05/02 00:08:12;;;;;;;17.45;16.48;;;;;;;;;;5058296;28;20028;-67
2022/05/02 00:10:37;;;;;;;18.30;17.30;;;;;;;;;;5053331;28;20033;-67
2022/05/02 00:13:04;;;;;;;14.85;14.00;;;;;;;;;;5052967;28;20125;-67
2022/05/02 00:15:29;;;;;;;13.63;12.80;;;;;;;;;;5054959;28;20041;-67
2022/05/02 00:17:59;;;;;;;16.75;15.75;;;;;;;;;;5053708;28;20474;-67
2022/05/02 00:20:34;;;;;;;18.42;17.30;;;;;;;;;;5050899;28;20083;-68
2022/05/02 00:23:02;;;;;;;15.35;14.20;;;;;;;;;;5054358;28;20348;-68
2022/05/02 00:25:28;;;;;;;9.55;8.95;;;;;;;;;;5052088;28;20048;-67
2022/05/02 00:27:54;;;;;;;15.55;14.57;;;;;;;;;;5048703;28;20024;-67
2022/05/02 00:30:20;;;;;;;14.05;13.15;;;;;;;;;;5052133;28;20558;-67
2022/05/02 00:32:46;;;;;;;15.00;14.05;;;;;;;;;;5055578;28;20455;-67
2022/05/02 00:35:12;;;;;;;14.93;14.02;;;;;;;;;;5053488;28;20029;-67
2022/05/02 00:37:38;;;;;;;13.98;13.18;;;;;;;;;;5051988;28;20041;-67
2022/05/02 00:40:06;;;;;;;14.38;13.52;;;;;;;;;;5052673;28;20024;-67
2022/05/02 00:42:31;;;;;;;15.57;14.70;;;;;;;;;;5054915;28;20068;-67
2022/05/02 00:44:57;;;;;;;15.35;14.45;;;;;;;;;;5054496;28;20037;-66
2022/05/02 00:47:22;;;;;;;16.92;15.77;;;;;;;;;;5054286;28;20029;-67
2022/05/02 00:49:48;;;;;;;14.20;13.30;;;;;;;;;;5050462;28;20144;-67
2022/05/02 00:52:15;;;;;;;14.05;13.23;;;;;;;;;;5049066;28;20036;-67
2022/05/02 00:54:41;;;;;;;14.63;13.77;;;;;;;;;;5051235;28;20468;-67
2022/05/02 00:57:07;;;;;;;12.23;11.48;;;;;;;;;;5056658;28;20060;-67
2022/05/02 00:59:36;;;;;;;14.02;13.18;;;;;;;;;;5050594;28;20052;-67
2022/05/02 01:02:03;;;;;;;13.13;12.25;;;;;;;;;;5053634;28;20514;-67
2022/05/02 01:04:29;;;;;;;16.40;15.45;;;;;;;;;;5048262;28;20044;-67
2022/05/02 01:07:09;;;;;;;15.57;14.68;;;;;;;;;;5051496;28;20044;-67
2022/05/02 01:09:41;;;;;;;12.52;11.73;;;;;;;;;;5052311;28;20467;-67
2022/05/02 01:12:16;;;;;;;14.27;13.48;;;;;;;;;;5054391;28;20045;-67
2022/05/02 01:14:43;;;;;;;13.05;12.25;;;;;;;;;;5061844;28;20043;-67
2022/05/02 01:17:09;;;;;;;14.30;13.43;;;;;;;;;;5053788;28;20079;-67
2022/05/02 01:19:35;;;;;;;12.55;11.75;;;;;;;;;;5050735;28;20028;-67
2022/05/02 01:22:01;;;;;;;10.02;9.40;;;;;;;;;;5052864;28;20729;-67
2022/05/02 01:24:46;;;;;;;13.77;12.95;;;;;;;;;;5049844;28;20037;-67
2022/05/02 01:27:12;;;;;;;11.50;10.80;;;;;;;;;;5049830;28;20715;-67
2022/05/02 01:29:41;;;;;;;11.68;10.98;;;;;;;;;;5053254;28;20879;-67
2022/05/02 01:32:09;;;;;;;12.00;11.30;;;;;;;;;;5069684;28;20115;-67
2022/05/02 01:34:41;;;;;;;11.20;10.50;;;;;;;;;;5054752;28;20039;-67
2022/05/02 01:37:09;;;;;;;13.52;12.70;;;;;;;;;;5053857;28;20123;-67
2022/05/02 01:39:34;;;;;;;12.55;11.80;;;;;;;;;;5054824;28;20107;-67
2022/05/02 01:42:01;;;;;;;14.80;13.63;;;;;;;;;;5055457;28;20111;-67
2022/05/02 01:44:27;;;;;;;11.07;10.38;;;;;;;;;;5051779;28;20032;-64
2022/05/02 01:46:53;;;;;;;11.90;11.18;;;;;;;;;;5055767;28;20042;-67
2022/05/02 01:49:19;;;;;;;15.70;14.80;;;;;;;;;;5055258;28;20072;-67
2022/05/02 01:51:44;;;;;;;14.77;13.77;;;;;;;;;;5060756;28;20068;-67
2022/05/02 01:54:10;;;;;;;11.52;10.82;;;;;;;;;;5052500;28;20045;-67
2022/05/02 01:56:36;;;;;;;16.77;15.80;;;;;;;;;;5057414;28;20040;-67
2022/05/02 01:59:02;;;;;;;14.80;13.90;;;;;;;;;;5056755;28;20028;-67
2022/05/02 02:01:28;;;;;;;15.40;14.48;;;;;;;;;;5056399;28;20024;-67
2022/05/02 02:03:53;;;;;;;17.45;16.42;;;;;;;;;;5052583;28;20040;-67
2022/05/02 02:06:19;;;;;;;16.38;15.48;;;;;;;;;;5050559;28;20036;-67
2022/05/02 02:08:45;;;;;;;14.60;13.75;;;;;;;;;;5068831;28;20548;-67
2022/05/02 02:11:10;;;;;;;15.43;14.45;;;;;;;;;;5055587;28;20032;-67
2022/05/02 02:13:36;;;;;;;16.38;15.27;;;;;;;;;;5059229;28;20128;-67
2022/05/02 02:16:07;;;;;;;11.60;10.70;;;;;;;;;;5055580;28;20371;-67
2022/05/02 02:18:33;;;;;;;;;;;;;;;;;;5055984;28;20047;-67
2022/05/02 02:20:59;;;;;;;7.05;6.53;;;;;;;;;;5056935;28;19912;-67
2022/05/02 02:23:24;;;;;;;10.10;9.45;;;;;;;;;;5055700;28;20028;-67
2022/05/02 02:25:50;;;;;;;9.50;8.90;;;;;;;;;;5054181;28;20068;-67
2022/05/02 02:28:16;;;;;;;13.55;12.75;;;;;;;;;;5063426;28;20119;-67
2022/05/02 02:30:42;;;;;;;9.80;9.20;;;;;;;;;;5056094;28;20041;-67
2022/05/02 02:33:08;;;;;;;8.98;8.38;;;;;;;;;;5055384;28;20067;-67
2022/05/02 02:35:33;;;;;;;9.27;8.68;;;;;;;;;;5052781;28;20060;-67
2022/05/02 02:37:59;;;;;;;10.63;9.93;;;;;;;;;;5070132;28;20132;-67
2022/05/02 02:40:25;;;;;;;10.57;9.88;;;;;;;;;;5054875;28;20378;-67
2022/05/02 02:42:51;;;;;;;12.20;11.45;;;;;;;;;;5051945;28;20042;-67
2022/05/02 02:45:16;;;;;;;9.52;8.90;;;;;;;;;;5051886;28;20037;-67
2022/05/02 02:47:44;;;;;;;9.50;8.90;;;;;;;;;;5053508;28;20124;-67
2022/05/02 02:50:10;;;;;;;10.60;9.90;;;;;;;;;;5055481;28;20489;-67
2022/05/02 02:52:35;;;;;;;10.70;10.00;;;;;;;;;;5054399;28;20041;-67
2022/05/02 02:55:01;;;;;;;8.00;7.50;;;;;;;;;;5054640;28;20037;-67
2022/05/02 02:57:26;;;;;;;7.65;7.15;;;;;;;;;;5064171;28;20041;-67
2022/05/02 02:59:52;;;;;;;7.03;6.53;;;;;;;;;;5055552;28;20727;-67
2022/05/02 03:02:17;;;;;;;8.75;8.15;;;;;;;;;;5055244;28;20794;-67
2022/05/02 03:07:28;;;;;;;8.57;8.02;;;;;;;;;;5054069;28;20059;-66
2022/05/02 03:09:54;;;;;;;7.50;7.00;;;;;;;;;;5068707;28;20373;-66
2022/05/02 03:12:20;;;;;;;7.45;6.85;;;;;;;;;;5051706;28;20116;-67
2022/05/02 03:14:46;;;;;;;9.82;9.07;;;;;;;;;;5053818;28;20025;-67
2022/05/02 03:17:11;;;;;;;9.43;8.82;;;;;;;;;;5062955;28;20525;-67
2022/05/02 03:19:37;;;;;;;9.32;8.73;;;;;;;;;;5052573;28;20039;-67
2022/05/02 03:22:03;;;;;;;9.93;9.13;;;;;;;;;;5051113;28;20428;-67
2022/05/02 03:24:29;;;;;;;9.27;8.68;;;;;;;;;;5051377;28;20028;-67
2022/05/02 03:26:54;;;;;;;6.82;6.32;;;;;;;;;;5053869;28;20020;-67
2022/05/02 03:29:20;;;;;;;8.60;8.00;;;;;;;;;;5054002;28;20787;-67
2022/05/02 03:31:46;;;;;;;8.10;7.53;;;;;;;;;;5054867;28;20032;-67
2022/05/02 03:34:11;;;;;;;10.77;8.45;;;;;;;;;;5049885;28;20080;-67
2022/05/02 03:36:37;;;;;;;8.93;8.32;;;;;;;;;;5049903;28;20032;-67
2022/05/02 03:39:03;;;;;;;8.85;8.25;;;;;;;;;;5050725;28;20028;-67
2022/05/02 03:41:29;;;;;;;8.80;8.20;;;;;;;;;;5052776;28;20032;-67
2022/05/02 03:43:54;;;;;;;8.75;8.15;;;;;;;;;;5049288;28;20036;-67
2022/05/02 03:46:20;;;;;;;11.23;10.52;;;;;;;;;;5068017;28;20037;-68
2022/05/02 03:48:45;;;;;;;8.77;8.18;;;;;;;;;;5060770;28;20513;-67
2022/05/02 03:51:11;;;;;;;10.70;10.02;;;;;;;;;;5050619;28;20340;-67
2022/05/02 03:53:37;;;;;;;10.77;10.10;;;;;;;;;;5052074;28;20562;-67
2022/05/02 03:56:02;;;;;;;11.73;10.90;;;;;;;;;;5052918;28;20108;-67
2022/05/02 03:58:28;;;;;;;9.63;9.02;;;;;;;;;;5055104;28;20138;-67
2022/05/02 04:00:53;;;;;;;11.65;10.75;;;;;;;;;;5048920;28;20093;-67
2022/05/02 04:03:19;;;;;;;7.43;6.93;;;;;;;;;;5050881;28;20082;-67
2022/05/02 04:05:44;;;;;;;9.40;8.70;;;;;;;;;;5050804;28;20025;-66
2022/05/02 04:08:10;;;;;;;7.88;7.35;;;;;;;;;;5049661;28;20115;-68
2022/05/02 04:10:35;;;;;;;12.10;7.88;;;;;;;;;;5050180;28;20039;-66
2022/05/02 04:13:01;;;;;;;7.95;7.25;;;;;;;;;;5052046;28;20132;-67
2022/05/02 04:15:26;;;;;;;6.80;6.30;;;;;;;;;;5049775;28;20047;-68
2022/05/02 04:17:51;;;;;;;5.70;5.30;;;;;;;;;;5049513;28;20043;-68
2022/05/02 04:20:17;;;;;;;9.88;9.07;;;;;;;;;;5047393;28;20033;-66
2022/05/02 04:22:42;;;;;;;7.72;7.22;;;;;;;;;;5051427;28;20611;-67
2022/05/02 04:25:08;;;;;;;6.88;6.38;;;;;;;;;;5055472;28;20066;-66
2022/05/02 04:27:34;;;;;;;6.97;6.45;;;;;;;;;;5054836;28;20040;-66
2022/05/02 04:30:00;;;;;;;8.50;7.90;;;;;;;;;;5051826;28;20105;-66
2022/05/02 04:32:26;;;;;;;8.30;7.72;;;;;;;;;;5048408;28;20116;-65
2022/05/02 04:34:56;;;;;;;8.25;7.65;;;;;;;;;;5059190;28;20067;-66
2022/05/02 04:37:21;;;;;;;7.47;6.97;;;;;;;;;;5049805;28;20032;-66
2022/05/02 04:39:47;;;;;;;6.90;6.40;;;;;;;;;;5050173;28;20094;-65
2022/05/02 04:42:12;;;;;;;7.07;6.55;;;;;;;;;;5049078;28;20040;-65
2022/05/02 04:44:39;;;;;;;9.50;7.03;;;;;;;;;;5049227;28;20036;-66
2022/05/02 04:47:05;;;;;;;6.10;5.63;;;;;;;;;;5048006;28;20047;-66
2022/05/02 04:49:30;;;;;;;5.93;5.53;;;;;;;;;;5055997;28;20028;-66
2022/05/02 04:51:55;;;;;;;7.82;7.22;;;;;;;;;;5048913;28;20029;-66
2022/05/02 04:54:21;;;;;;;8.32;7.72;;;;;;;;;;5049686;28;20025;-65
2022/05/02 04:56:46;;;;;;;7.13;6.63;;;;;;;;;;5054466;28;20119;-66
2022/05/02 04:59:11;;;;;;;7.15;6.57;;;;;;;;;;5052444;28;20080;-66
2022/05/02 05:01:37;;;;;;;7.03;6.53;;;;;;;;;;5053877;28;20860;-65
2022/05/02 05:04:02;;;;;;;6.65;6.15;;;;;;;;;;5049509;28;20412;-65
2022/05/02 05:06:27;;;;;;;7.85;7.25;;;;;;;;;;5047240;28;20051;-65
2022/05/02 05:08:53;;;;;;;8.15;7.35;;;;;;;;;;5048602;28;20029;-65
2022/05/02 05:11:21;;;;;;;6.35;5.85;;;;;;;;;;5050911;28;20175;-65
2022/05/02 05:17:07;;;;;;;6.55;6.05;;;;;;;;;;5052074;28;20044;-65
2022/05/02 05:19:54;;;;;;;6.90;6.40;;;;;;;;;;5051433;28;20032;-66
2022/05/02 05:22:49;;;;;;;7.45;6.90;;;;;;;;;;5051250;28;20083;-65
2022/05/02 05:25:30;;;;;;;7.43;6.90;;;;;;;;;;5050360;28;20369;-66
2022/05/02 05:28:15;;;;;;;8.70;8.13;;;;;;;;;;5050425;28;20033;-65
2022/05/02 05:30:44;;;;;;;9.10;8.48;;;;;;;;;;5053141;28;20052;-65
2022/05/02 05:33:49;;;;;;;7.18;6.68;;;;;;;;;;5052678;28;20043;-64
2022/05/02 05:36:25;;;;;;;8.57;7.97;;;;;;;;;;5049489;28;20425;-65
2022/05/02 05:39:01;;;;;;;10.85;10.07;;;;;;;;;;5051674;28;20036;-65
2022/05/02 05:41:43;;;;;;;8.98;8.38;;;;;;;;;;5047682;28;20035;-65
2022/05/02 05:44:11;;;;;;;12.35;11.52;;;;;;;;;;5050492;28;20040;-65
2022/05/02 05:46:50;;;;;;;11.48;10.77;;;;;;;;;;5046437;28;20367;-68
2022/05/02 05:49:27;;;;;;;12.93;12.13;;;;;;;;;;5049599;28;20443;-67
2022/05/02 05:52:14;;;;;;;14.40;13.50;;;;;;;;;;5054916;28;20194;-67
2022/05/02 05:55:05;;;;;;;11.27;10.57;;;;;;;;;;5048807;28;20047;-67
2022/05/02 05:57:58;;;;;;;12.50;11.77;;;;;;;;;;5052362;28;20049;-67
2022/05/02 06:00:29;;;;;;;12.90;12.05;;;;;;;;;;5048881;28;20094;-68
2022/05/02 06:03:24;;;;;;;11.68;10.88;;;;;;;;;;5065482;28;20064;-68
2022/05/02 06:05:49;;;;;;;11.60;10.90;;;;;;;;;;5045845;28;20049;-67
2022/05/02 06:08:22;;;;;;;15.90;14.75;;;;;;;;;;5052468;28;20048;-68
2022/05/02 06:10:50;;;;;;;15.40;14.50;;;;;;;;;;5049910;28;20041;-69
2022/05/02 06:13:17;;;;;;;16.67;15.68;;;;;;;;;;5053715;28;20370;-68
2022/05/02 06:18:35;;;;;;;13.60;12.80;;;;;;;;;;5051553;28;20429;-68
2022/05/02 06:21:03;;;;;;;19.80;18.60;;;;;;;;;;5054841;28;20629;-67
2022/05/02 06:23:34;;;;;;;21.00;19.70;;;;;;;;;;5055513;28;20032;-68
2022/05/02 06:26:02;;;;;;;21.40;20.13;;;;;;;;;;5054901;28;20443;-68
2022/05/02 06:28:31;;;;;;;18.60;17.48;;;;;;;;;;5053628;28;20041;-66
2022/05/02 06:31:00;;;;;;;16.25;15.25;;;;;;;;;;5058530;28;20025;-66
2022/05/02 06:33:26;;;;;;;11.95;11.15;;;;;;;;;;5055671;28;20513;-67
2022/05/02 06:36:05;;;;;;;10.40;9.70;;;;;;;;;;5071450;28;20041;-68
2022/05/02 06:38:43;;;;;;;8.80;8.20;;;;;;;;;;5053217;28;20035;-68
2022/05/02 06:41:30;;;;;;;7.75;7.15;;;;;;;;;;5054496;28;20095;-67
2022/05/02 06:44:04;;;;;;;11.45;10.65;;;;;;;;;;5051114;28;20029;-67
2022/05/02 06:47:05;;;;;;;8.77;8.18;;;;;;;;;;5052393;28;20025;-67
2022/05/02 06:49:32;;;;;;;8.48;7.88;;;;;;;;;;5052395;28;20040;-67
2022/05/02 06:51:58;;;;;;;7.50;7.00;;;;;;;;;;5053724;28;20059;-66
2022/05/02 06:54:29;;;;;;;8.07;7.57;;;;;;;;;;5050739;28;20226;-65
2022/05/02 06:56:57;;;;;;;;;;;;;;;;;;5056289;28;20095;-65
2022/05/02 06:59:31;;;;;;;7.22;6.70;;;;;;;;;;5053385;28;19908;-66
2022/05/02 07:02:03;;;;;;;9.10;8.40;;;;;;;;;;5055621;28;20025;-67
2022/05/02 07:04:50;;;;;;;7.88;7.30;;;;;;;;;;5048593;28;20033;-66
2022/05/02 07:07:37;;;;;;;9.43;8.82;;;;;;;;;;5048615;28;20037;-65
2022/05/02 07:10:23;;;;;;;9.90;9.10;;;;;;;;;;5054157;28;20331;-65
2022/05/02 07:13:13;;;;;;;8.70;8.10;;;;;;;;;;5054244;28;20039;-67
2022/05/02 07:16:03;;;;;;;8.13;7.57;;;;;;;;;;5048460;28;20110;-66
2022/05/02 07:18:45;;;;;;;8.48;7.88;;;;;;;;;;5048052;28;20037;-67
2022/05/02 07:21:17;;;;;;;8.43;7.72;;;;;;;;;;5048643;28;20104;-66
2022/05/02 07:24:11;;;;;;;9.45;8.82;;;;;;;;;;5049926;28;20095;-66
2022/05/02 07:26:37;;;;;;;7.75;7.22;;;;;;;;;;5049840;28;20024;-67
2022/05/02 07:29:04;;;;;;;9.73;9.02;;;;;;;;;;5047642;28;20032;-66
2022/05/02 07:31:31;;;;;;;8.75;8.15;;;;;;;;;;5049820;28;20458;-67
2022/05/02 07:33:57;;;;;;;8.98;8.38;;;;;;;;;;5055078;28;20123;-67
2022/05/02 07:36:25;;;;;;;7.55;7.05;;;;;;;;;;5055392;28;20060;-68
2022/05/02 07:38:53;;;;;;;10.48;9.77;;;;;;;;;;5056071;28;20029;-66
2022/05/02 07:41:27;;;;;;;8.80;8.20;;;;;;;;;;5053347;28;20024;-67
2022/05/02 07:44:03;;;;;;;8.57;7.97;;;;;;;;;;5052213;28;20033;-67
2022/05/02 07:46:31;;;;;;;8.00;7.50;;;;;;;;;;5050423;28;20549;-67
2022/05/02 07:48:58;;;;;;;13.07;12.10;;;;;;;;;;5051500;28;20098;-67
2022/05/02 07:51:25;;;;;;;14.23;13.32;;;;;;;;;;5052630;28;20518;-67
2022/05/02 07:53:51;;;;;;;14.45;13.55;;;;;;;;;;5050172;28;20486;-67
2022/05/02 07:56:21;;;;;;;11.68;10.95;;;;;;;;;;5049862;28;20036;-66
2022/05/02 07:58:47;;;;;;;15.43;14.52;;;;;;;;;;5054014;28;20032;-67
2022/05/02 08:01:18;;;;;;;20.50;19.17;;;;;;;;;;5053270;28;20404;-67
2022/05/02 08:03:43;;;;;;;20.50;19.08;;;;;;;;;;5051788;28;20036;-66
2022/05/02 08:06:27;;;;;;;13.60;12.80;;;;;;;;;;5053325;28;20480;-66
2022/05/02 08:09:11;;;;;;;24.30;23.00;;;;;;;;;;5051841;28;20028;-66
2022/05/02 08:11:41;;;;;;;26.45;24.98;;;;;;;;;;5054036;28;20032;-67
2022/05/02 08:14:16;;;;;;;30.58;28.95;;;;;;;;;;5054440;28;20330;-67
2022/05/02 08:16:58;;;;;;;23.35;22.05;;;;;;;;;;5037514;28;20466;-66
2022/05/02 08:19:47;;;;;;;26.80;25.38;;;;;;;;;;5050535;28;20048;-66
2022/05/02 08:28:07;;;;;;;21.80;20.55;;;;;;;;;;5051805;28;20033;-66
2022/05/02 08:30:40;;;;;;;33.13;31.42;;;;;;;;;;5048980;28;20033;-67
2022/05/02 08:33:08;;;;;;;29.52;27.98;;;;;;;;;;5049968;28;20045;-67
2022/05/02 08:35:58;;;;;;;28.40;26.85;;;;;;;;;;5058535;28;20551;-66
2022/05/02 08:39:06;;;;;;;19.13;18.02;;;;;;;;;;5050824;28;20114;-68
2022/05/02 08:42:01;;;;;;;31.25;29.55;;;;;;;;;;5029069;28;20381;-66
2022/05/02 08:44:29;;;;;;;20.45;19.35;;;;;;;;;;5041779;28;20044;-66
2022/05/02 08:47:10;;;;;;;23.05;21.75;;;;;;;;;;5047792;28;20083;-67
2022/05/02 08:49:48;;;;;;;20.88;19.63;;;;;;;;;;5047275;28;20039;-65
2022/05/02 08:52:37;;;;;;;26.70;25.20;;;;;;;;;;5045887;28;20037;-66
2022/05/02 08:55:33;;;;;;;27.10;25.63;;;;;;;;;;5049900;28;20033;-67
2022/05/02 08:58:25;;;;;;;27.73;26.08;;;;;;;;;;5051351;28;20033;-66
2022/05/02 09:01:15;;;;;;;34.95;32.80;;;;;;;;;;5049693;28;20087;-67
2022/05/02 09:04:06;;;;;;;23.30;22.05;;;;;;;;;;5048109;28;20047;-65
2022/05/02 09:06:40;;;;;;;;;;;;;;;;;;5049766;28;20068;-67
2022/05/02 09:09:42;;;;;;;25.30;23.90;;;;;;;;;;5052311;28;19920;-66
2022/05/02 09:12:11;;;;;;;19.35;18.15;;;;;;;;;;5050854;28;20041;-64
2022/05/02 09:15:11;;;;;;;14.43;13.55;;;;;;;;;;5051204;28;20131;-65
2022/05/02 09:18:14;;;;;;;17.23;16.23;;;;;;;;;;5047698;28;20049;-67
2022/05/02 09:20:55;;;;;;;24.48;23.05;;;;;;;;;;5049462;28;20123;-66
2022/05/02 09:23:35;;;;;;;26.00;24.33;;;;;;;;;;5045938;28;20120;-67
2022/05/02 09:26:06;;;;;;;21.23;19.83;;;;;;;;;;5048334;28;20083;-66
2022/05/02 09:28:53;;;;;;;26.30;24.88;;;;;;;;;;5046705;28;20601;-66
2022/05/02 09:31:24;;;;;;;28.77;27.27;;;;;;;;;;5049078;28;20033;-65
2022/05/02 09:34:08;;;;;;;21.13;19.92;;;;;;;;;;5048559;28;20426;-65
2022/05/02 09:37:04;;;;;;;22.80;21.55;;;;;;;;;;5048007;28;20973;-65
2022/05/02 09:39:58;;;;;;;20.65;19.55;;;;;;;;;;5048251;28;20036;-65
2022/05/02 09:42:51;;;;;;;26.20;24.80;;;;;;;;;;5051619;28;20558;-64
2022/05/02 09:49:49;;;;;;;20.70;19.55;;;;;;;;;;5049523;28;20093;-64
2022/05/02 09:51:52;;;;;;;16.65;15.65;;;;;;;;;;5056668;28;20049;-64
2022/05/02 09:56:37;;;;;;;27.77;26.27;;;;;;;;;;5054220;28;20471;-64
2022/05/02 09:57:15;;;;;;;19.08;17.92;;;;;;;;;;5057010;28;20045;-65
2022/05/02 09:59:48;;;;;;;17.42;16.35;;;;;;;;;;5051967;28;20120;-66
2022/05/02 10:02:23;;;;;;;15.00;14.07;;;;;;;;;;5056123;28;20055;-64
2022/05/02 10:05:08;;;;;;;21.13;19.92;;;;;;;;;;5056113;28;20040;-65
2022/05/02 10:07:45;;;;;;;19.63;18.52;;;;;;;;;;5055204;28;20496;-64
2022/05/02 10:10:22;;;;;;;17.77;16.77;;;;;;;;;;5055236;28;20413;-63
2022/05/02 10:12:47;;;;;;;16.17;15.18;;;;;;;;;;5054060;28;20071;-64
2022/05/02 10:15:48;;;;;;;12.95;12.10;;;;;;;;;;5053100;28;20052;-63
2022/05/02 10:18:22;;;;;;;10.13;9.43;;;;;;;;;;5058316;28;20036;-63
2022/05/02 10:21:09;;;;;;;22.08;20.85;;;;;;;;;;5062587;28;20033;-63
2022/05/02 10:23:44;;;;;;;10.55;9.85;;;;;;;;;;5074652;28;20362;-63
2022/05/02 10:26:44;;;;;;;13.57;12.75;;;;;;;;;;5058604;28;20039;-63
2022/05/02 10:29:45;;;;;;;13.32;12.52;;;;;;;;;;5067171;28;20626;-63
2022/05/02 10:32:26;;;;;;;22.63;21.35;;;;;;;;;;5048085;28;20089;-64
2022/05/02 10:34:54;;;;;;;16.27;15.30;;;;;;;;;;5052512;28;20044;-63
2022/05/02 10:37:27;;;;;;;16.00;15.00;;;;;;;;;;5054044;28;20066;-64
2022/05/02 10:40:01;;;;;;;16.17;15.20;;;;;;;;;;5049913;28;20115;-64
2022/05/02 10:42:30;;;;;;;22.15;20.95;;;;;;;;;;5053770;28;20655;-65
2022/05/02 10:45:04;;;;;;;12.02;11.27;;;;;;;;;;5050466;28;20047;-64
2022/05/02 10:47:39;;;;;;;11.75;11.05;;;;;;;;;;5051557;28;20036;-63
2022/05/02 10:50:30;;;;;;;11.75;11.05;;;;;;;;;;5050159;28;20119;-63
2022/05/02 10:53:34;;;;;;;12.40;11.50;;;;;;;;;;5051619;28;20121;-64
2022/05/02 10:56:23;;;;;;;13.93;13.02;;;;;;;;;;5055389;28;20036;-65
2022/05/02 10:58:48;;;;;;;20.90;19.70;;;;;;;;;;5049705;28;20040;-65
2022/05/02 11:01:56;;;;;;;17.80;16.75;;;;;;;;;;5049833;28;20398;-64
2022/05/02 11:04:51;;;;;;;13.57;12.77;;;;;;;;;;5048776;28;20072;-65
2022/05/02 11:07:25;;;;;;;13.05;12.25;;;;;;;;;;5054101;28;20033;-64
2022/05/02 11:09:59;;;;;;;24.35;22.95;;;;;;;;;;5056312;28;21345;-65
2022/05/02 11:12:31;;;;;;;15.25;14.35;;;;;;;;;;5051162;28;20109;-64
2022/05/02 11:15:05;;;;;;;15.50;14.55;;;;;;;;;;5052098;28;20374;-64
2022/05/02 11:17:43;;;;;;;14.32;13.38;;;;;;;;;;5053569;28;20186;-63
2022/05/02 11:23:28;;;;;;;16.70;15.70;;;;;;;;;;5050963;28;21174;-64
2022/05/02 11:26:22;;;;;;;17.23;16.13;;;;;;;;;;5051727;28;20044;-65
2022/05/02 11:29:18;;;;;;;15.77;14.80;;;;;;;;;;5051390;28;20119;-64
2022/05/02 11:32:01;;;;;;;16.83;15.82;;;;;;;;;;5049256;28;20025;-64
2022/05/02 11:34:48;;;;;;;18.92;17.83;;;;;;;;;;5048615;28;20071;-64
2022/05/02 11:37:31;;;;;;;21.42;20.02;;;;;;;;;;5051767;28;20066;-63
2022/05/02 11:40:01;;;;;;;18.55;17.45;;;;;;;;;;5049687;28;20040;-63
2022/05/02 11:42:28;;;;;;;26.98;25.48;;;;;;;;;;5049106;28;20029;-63
2022/05/02 11:45:08;;;;;;;20.27;19.13;;;;;;;;;;5051348;28;20047;-64
2022/05/02 11:47:54;;;;;;;21.88;20.67;;;;;;;;;;5051131;28;20033;-65
2022/05/02 11:50:23;;;;;;;28.13;26.58;;;;;;;;;;5051551;28;20036;-63
2022/05/02 11:52:54;;;;;;;28.23;26.73;;;;;;;;;;5051519;28;20097;-64
2022/05/02 11:55:31;;;;;;;22.70;21.42;;;;;;;;;;5048372;28;20485;-65
2022/05/02 11:58:07;;;;;;;33.40;31.55;;;;;;;;;;5052421;28;20028;-64
2022/05/02 12:00:35;;;;;;;26.25;24.85;;;;;;;;;;5051402;28;20032;-63
2022/05/02 12:03:22;;;;;;;34.53;32.72;;;;;;;;;;5049445;28;20387;-64
2022/05/02 12:05:52;;;;;;;31.02;29.40;;;;;;;;;;5052119;28;20071;-65
2022/05/02 12:08:32;;;;;;;21.52;20.27;;;;;;;;;;5054273;28;20036;-65
2022/05/02 12:11:09;;;;;;;41.78;39.60;;;;;;;;;;5052670;28;20036;-63
2022/05/02 12:13:36;;;;;;;39.13;37.08;;;;;;;;;;5053078;28;20107;-65
2022/05/02 12:16:04;;;;;;;24.90;23.58;;;;;;;;;;5053415;28;20047;-65
2022/05/02 12:18:47;;;;;;;24.10;22.70;;;;;;;;;;5053650;28;20024;-67
2022/05/02 12:21:38;;;;;;;27.50;26.00;;;;;;;;;;5048071;28;20758;-66
2022/05/02 12:24:05;;;;;;;31.75;30.08;;;;;;;;;;5050946;28;20048;-67
2022/05/02 12:26:45;;;;;;;38.42;36.42;;;;;;;;;;5050121;28;20071;-67
2022/05/02 12:29:19;;;;;;;36.58;34.33;;;;;;;;;;5053065;28;20036;-66
2022/05/02 12:31:59;;;;;;;34.53;32.72;;;;;;;;;;5046846;28;20528;-66
2022/05/02 12:34:39;;;;;;;33.78;31.92;;;;;;;;;;5045791;28;20513;-67
2022/05/02 12:37:20;;;;;;;41.22;39.10;;;;;;;;;;5046059;28;20110;-66
2022/05/02 12:39:50;;;;;;;18.42;17.33;;;;;;;;;;5050990;28;20060;-66
2022/05/02 12:42:18;;;;;;;36.83;34.92;;;;;;;;;;5050234;28;20043;-62
2022/05/02 12:45:02;;;;;;;41.67;39.53;;;;;;;;;;5047982;28;20041;-65
2022/05/02 12:47:34;;;;;;;38.10;35.35;;;;;;;;;;5052458;28;20049;-65
2022/05/02 12:50:11;;;;;;;18.88;17.77;;;;;;;;;;5049422;28;20024;-65
2022/05/02 12:52:45;;;;;;;20.20;19.10;;;;;;;;;;5048047;28;20056;-65
2022/05/02 12:55:12;;;;;;;20.15;19.05;;;;;;;;;;5049670;28;20028;-65
2022/05/02 13:00:32;;;;;;;21.13;19.88;;;;;;;;;;5048702;28;20025;-65
2022/05/02 13:03:12;;;;;;;22.88;21.58;;;;;;;;;;5048656;28;20091;-66
2022/05/02 13:05:56;;;;;;;22.00;20.75;;;;;;;;;;5056266;28;20093;-66
2022/05/02 13:08:28;;;;;;;21.40;20.20;;;;;;;;;;5049881;28;20040;-65
2022/05/02 13:11:03;;;;;;;26.08;24.67;;;;;;;;;;5050110;28;20036;-64
2022/05/02 13:13:37;;;;;;;22.65;21.35;;;;;;;;;;5049911;28;20730;-65
2022/05/02 13:16:12;;;;;;;22.33;21.10;;;;;;;;;;5050400;28;20024;-64
2022/05/02 13:18:45;;;;;;;19.08;17.98;;;;;;;;;;5047896;28;20036;-65
2022/05/02 13:21:11;;;;;;;23.63;22.33;;;;;;;;;;5048000;28;20761;-65
2022/05/02 13:23:38;;;;;;;19.20;18.10;;;;;;;;;;5053285;28;20055;-65
2022/05/02 13:26:18;;;;;;;36.58;34.67;;;;;;;;;;5046956;28;20036;-66
2022/05/02 13:29:07;;;;;;;20.33;19.20;;;;;;;;;;5061555;28;20545;-65
2022/05/02 13:31:50;;;;;;;24.67;23.25;;;;;;;;;;5054963;28;20420;-65
2022/05/02 13:34:51;;;;;;;17.95;16.92;;;;;;;;;;5052871;28;20124;-65
2022/05/02 13:37:43;;;;;;;17.35;16.35;;;;;;;;;;5055293;28;20162;-65
2022/05/02 13:40:11;;;;;;;17.55;16.55;;;;;;;;;;5056474;28;20036;-65
2022/05/02 13:42:55;;;;;;;21.92;20.73;;;;;;;;;;5057822;28;20382;-65
2022/05/02 13:46:03;;;;;;;20.38;19.17;;;;;;;;;;5049012;28;20082;-66
2022/05/02 13:48:58;;;;;;;19.98;18.58;;;;;;;;;;5055989;28;20048;-66
2022/05/02 13:51:37;;;;;;;19.98;18.88;;;;;;;;;;5058866;28;20051;-66
2022/05/02 13:54:12;;;;;;;28.08;26.52;;;;;;;;;;5064135;28;20025;-66
2022/05/02 13:57:04;;;;;;;32.97;31.20;;;;;;;;;;5057248;28;20126;-65
2022/05/02 13:59:40;;;;;;;22.27;21.05;;;;;;;;;;5057412;28;20024;-66
2022/05/02 14:02:44;;;;;;;21.23;20.00;;;;;;;;;;5056394;28;20021;-66
2022/05/02 14:05:15;;;;;;;23.38;22.10;;;;;;;;;;5060130;28;20051;-66
2022/05/02 14:07:45;;;;;;;20.95;19.80;;;;;;;;;;5055681;28;20592;-66
2022/05/02 14:10:12;;;;;;;19.23;18.13;;;;;;;;;;5054351;28;20035;-67
2022/05/02 14:12:40;;;;;;;21.90;20.52;;;;;;;;;;5055639;28;20115;-67
2022/05/02 14:15:07;;;;;;;18.48;17.38;;;;;;;;;;5056371;28;20048;-67
2022/05/02 14:17:43;;;;;;;17.17;16.17;;;;;;;;;;5057218;28;20521;-67
2022/05/02 14:20:21;;;;;;;17.17;16.17;;;;;;;;;;5053090;28;20029;-67
2022/05/02 14:22:57;;;;;;;18.00;16.95;;;;;;;;;;5058490;28;20036;-67
2022/05/02 14:25:38;;;;;;;18.48;17.45;;;;;;;;;;5057237;28;20105;-68
2022/05/02 14:28:07;;;;;;;17.08;15.98;;;;;;;;;;5051906;28;20029;-65
2022/05/02 14:30:37;;;;;;;20.90;19.05;;;;;;;;;;5052961;28;20037;-68
2022/05/02 14:33:04;;;;;;;16.83;15.82;;;;;;;;;;5053691;28;20492;-67
2022/05/02 14:35:38;;;;;;;19.42;18.23;;;;;;;;;;5057174;28;20444;-67
2022/05/02 14:38:08;;;;;;;19.63;18.38;;;;;;;;;;5071295;28;20167;-67
2022/05/02 14:40:41;;;;;;;20.50;18.75;;;;;;;;;;5058119;28;20025;-67
2022/05/02 14:43:11;;;;;;;20.48;19.33;;;;;;;;;;5054858;28;20047;-65
2022/05/02 14:45:37;;;;;;;24.05;22.75;;;;;;;;;;5054197;28;20060;-67
2022/05/02 14:48:05;;;;;;;25.23;23.85;;;;;;;;;;5055100;28;20033;-67
2022/05/02 14:50:32;;;;;;;26.27;24.85;;;;;;;;;;5051041;28;20135;-68
2022/05/02 14:52:58;;;;;;;23.48;22.08;;;;;;;;;;5051948;28;20089;-67
2022/05/02 14:55:25;;;;;;;26.15;24.73;;;;;;;;;;5053067;28;20024;-67
2022/05/02 14:57:51;;;;;;;22.02;20.83;;;;;;;;;;5053356;28;20093;-67
2022/05/02 15:00:20;;;;;;;21.42;20.17;;;;;;;;;;5057538;28;20024;-68
2022/05/02 15:02:47;;;;;;;24.55;23.23;;;;;;;;;;5052411;28;20481;-67
2022/05/02 15:05:16;;;;;;;27.65;26.17;;;;;;;;;;5055903;28;20053;-68
2022/05/02 15:08:03;;;;;;;20.85;19.70;;;;;;;;;;5052537;28;20049;-67
2022/05/02 15:10:51;;;;;;;21.17;20.00;;;;;;;;;;5051297;28;20033;-67
2022/05/02 15:13:53;;;;;;;17.48;16.40;;;;;;;;;;5049883;28;20102;-67
2022/05/02 15:16:32;;;;;;;16.52;15.63;;;;;;;;;;5052401;28;20060;-68
2022/05/02 15:22:07;;;;;;;16.67;15.68;;;;;;;;;;5051825;28;20032;-67
2022/05/02 15:24:49;;;;;;;14.73;13.85;;;;;;;;;;5050014;28;20036;-67
2022/05/02 15:38:53;;;;;;;17.67;16.67;;;;;;;;;;5052128;28;20036;-62
2022/05/02 15:41:47;;;;;;;18.27;17.17;;;;;;;;;;5049884;28;20119;-63
2022/05/02 15:44:18;;;;;;;15.60;14.70;;;;;;;;;;5052205;28;20049;-63